Time;durP1;ratioP1;P1;durP2;ratioP2;P2;SDS_P1;SDS_P2;PMS_P1;PMS_P2;Temp;Humidity;BMP_temperature;BMP_pressure;BME280_temperature;BME280_humidity;BME280_pressure;Samples;Min_cycle;Max_cycle;Signal;HPM_P1;HPM_P2
2021/04/12 06:12:37;;;;;;;1.98;0.90;;;6.40;99.90;;;;;;2465168;22;716269;-70
2021/04/12 06:15:18;;;;;;;10.35;1.40;;;6.70;99.90;;;;;;3599415;39;20032;-71
2021/04/12 06:18:22;;;;;;;7.93;1.17;;;6.60;99.90;;;;;;3601038;39;20401;-70
2021/04/12 06:21:18;;;;;;;2.83;0.88;;;6.80;99.90;;;;;;3598747;39;20052;-72
2021/04/12 06:24:09;;;;;;;4.53;0.80;;;7.10;99.90;;;;;;3596649;39;20059;-71
2021/04/12 06:27:06;;;;;;;5.53;1.13;;;7.60;99.90;;;;;;3601352;39;20078;-72
2021/04/12 06:30:05;;;;;;;3.50;0.77;;;7.30;99.90;;;;;;3600830;39;20051;-71
2021/04/12 06:33:13;;;;;;;7.28;0.73;;;7.10;99.90;;;;;;3601180;39;20055;-71
2021/04/12 06:35:44;;;;;;;3.78;0.70;;;6.60;99.90;;;;;;3600925;39;20055;-72
2021/04/12 06:38:34;;;;;;;4.80;0.98;;;6.60;99.90;;;;;;3599895;39;20537;-70
2021/04/12 06:41:52;;;;;;;8.98;1.20;;;6.90;99.90;;;;;;3598100;39;20040;-73
2021/04/12 06:44:43;;;;;;;5.63;0.70;;;7.20;99.90;;;;;;3599421;39;20039;-71
2021/04/12 06:47:23;;;;;;;2.72;1.10;;;7.30;99.90;;;;;;3601280;39;20067;-71
2021/04/12 06:50:19;;;;;;;5.78;0.90;;;7.50;99.90;;;;;;3599997;39;20390;-72
2021/04/12 06:53:29;;;;;;;5.10;0.73;;;7.50;99.90;;;;;;3599329;39;20404;-71
2021/04/12 06:55:54;;;;;;;7.25;0.95;;;8.00;99.90;;;;;;3597116;39;20048;-72
2021/04/12 06:58:38;;;;;;;2.33;0.77;;;8.30;99.90;;;;;;3600060;39;20491;-71
2021/04/12 07:01:28;;;;;;;6.60;0.85;;;8.30;99.90;;;;;;3600353;39;20331;-73
2021/04/12 07:04:20;;;;;;;3.75;1.20;;;8.50;99.90;;;;;;3596689;39;20156;-70
2021/04/12 07:07:16;;;;;;;4.35;0.98;;;8.20;99.90;;;;;;3597147;39;20101;-71
2021/04/12 07:10:12;;;;;;;7.32;1.35;;;8.50;99.90;;;;;;3599293;39;20063;-71
2021/04/12 07:13:05;;;;;;;8.32;1.20;;;8.80;99.90;;;;;;3601053;39;20048;-72
2021/04/12 07:16:03;;;;;;;6.55;1.90;;;9.30;99.90;;;;;;3601179;39;20135;-72
2021/04/12 07:19:06;;;;;;;5.88;0.85;;;9.10;99.90;;;;;;3607050;39;20096;-72
2021/04/12 07:21:59;;;;;;;5.55;3.05;;;8.80;99.90;;;;;;3600248;39;20052;-72
2021/04/12 07:24:34;;;;;;;10.15;2.33;;;9.50;99.90;;;;;;3591385;40;20046;-73
2021/04/12 07:27:39;;;;;;;8.32;3.88;;;9.60;99.90;;;;;;3592824;40;20280;-70
2021/04/12 07:30:26;;;;;;;9.05;2.63;;;10.10;99.90;;;;;;3595070;39;20510;-73
2021/04/12 07:33:18;;;;;;;4.65;1.17;;;10.20;99.90;;;;;;3594644;39;20105;-70
2021/04/12 07:36:02;;;;;;;7.63;3.25;;;8.70;99.90;;;;;;3593598;39;20055;-70
2021/04/12 07:38:53;;;;;;;4.38;1.13;;;8.60;99.90;;;;;;3593434;40;20051;-70
2021/04/12 07:41:54;;;;;;;9.63;2.50;;;8.30;99.90;;;;;;3583667;40;20056;-70
2021/04/12 07:44:54;;;;;;;14.27;4.68;;;8.00;99.90;;;;;;3588274;40;20052;-71
2021/04/12 07:47:57;;;;;;;9.23;2.95;;;8.00;99.90;;;;;;3594534;40;20387;-70
2021/04/12 07:51:18;;;;;;;7.90;2.50;;;8.00;99.90;;;;;;3593799;40;20409;-71
2021/04/12 07:54:12;;;;;;;20.23;6.68;;;8.40;99.90;;;;;;3592873;39;20074;-70
2021/04/12 07:57:26;;;;;;;3.17;1.67;;;8.30;99.90;;;;;;3592094;40;20096;-70
2021/04/12 08:00:41;;;;;;;9.13;2.05;;;9.30;99.90;;;;;;3593543;40;20059;-71
2021/04/12 08:03:34;;;;;;;4.15;1.33;;;9.00;99.90;;;;;;3593952;39;20072;-72
2021/04/12 08:06:15;;;;;;;9.82;2.90;;;9.90;99.90;;;;;;3593575;40;20439;-69
2021/04/12 08:09:02;;;;;;;7.30;2.88;;;10.20;99.90;;;;;;3589957;40;20304;-70
2021/04/12 08:12:15;;;;;;;3.20;1.95;;;9.80;99.90;;;;;;3585419;40;20059;-71
2021/04/12 08:15:18;;;;;;;6.55;1.77;;;10.50;99.90;;;;;;3592021;40;20096;-70
2021/04/12 08:18:00;;;;;;;;;;;10.90;99.90;;;;;;3593438;40;20203;-71
2021/04/12 08:21:02;;;;;;;6.45;1.42;;;11.00;99.90;;;;;;3594027;39;19927;-71
2021/04/12 08:24:08;;;;;;;4.07;1.70;;;11.20;99.90;;;;;;3593365;39;20055;-71
2021/04/12 08:27:08;;;;;;;2.38;1.05;;;11.60;99.90;;;;;;3592031;40;20052;-71
2021/04/12 08:29:46;;;;;;;4.82;1.55;;;11.80;99.90;;;;;;3583525;40;20059;-71
2021/04/12 08:32:53;;;;;;;4.90;1.23;;;12.60;99.90;;;;;;3593480;40;20054;-71
2021/04/12 08:35:37;;;;;;;4.50;1.20;;;13.10;96.20;;;;;;3592216;40;20340;-71
2021/04/12 08:38:30;;;;;;;7.07;1.13;;;13.10;94.90;;;;;;3593597;40;20044;-72
2021/04/12 08:41:05;;;;;;;;;;;12.50;92.30;;;;;;3589192;40;20302;-71
2021/04/12 08:43:52;;;;;;;5.40;1.00;;;12.60;93.90;;;;;;3593644;40;20257;-70
2021/04/12 08:46:24;;;;;;;3.10;0.60;;;12.50;94.70;;;;;;3593382;39;20163;-71
2021/04/12 08:49:11;;;;;;;5.40;1.10;;;12.90;93.30;;;;;;3592804;40;20044;-72
2021/04/12 08:52:14;;;;;;;2.65;1.13;;;13.60;92.40;;;;;;3593507;39;20113;-70
2021/04/12 08:54:54;;;;;;;2.78;0.88;;;14.00;91.20;;;;;;3592460;40;20066;-70
2021/04/12 08:57:58;;;;;;;5.18;1.00;;;14.60;89.40;;;;;;3593191;40;20162;-71
2021/04/12 09:01:00;;;;;;;4.55;0.90;;;14.20;87.40;;;;;;3593834;40;20056;-71
2021/04/12 09:04:06;;;;;;;2.30;0.68;;;14.70;87.00;;;;;;3593358;39;20064;-71
2021/04/12 09:07:08;;;;;;;6.07;1.35;;;14.60;90.90;;;;;;3593026;39;20075;-71
2021/04/12 09:09:54;;;;;;;5.70;1.08;;;12.90;94.60;;;;;;3590048;40;20052;-71
2021/04/12 09:12:36;;;;;;;6.80;2.00;;;10.50;99.90;;;;;;3591897;40;20044;-70
2021/04/12 09:15:38;;;;;;;1.52;1.20;;;9.60;99.90;;;;;;3592420;40;20437;-70
2021/04/12 09:18:22;;;;;;;2.75;0.90;;;9.20;99.90;;;;;;3592788;40;20149;-72
2021/04/12 09:21:12;;;;;;;5.05;0.95;;;9.10;99.90;;;;;;3591460;40;20405;-72
2021/04/12 09:23:58;;;;;;;7.28;1.50;;;9.10;99.90;;;;;;3583419;40;20433;-71
2021/04/12 09:27:05;;;;;;;7.10;1.38;;;9.70;99.90;;;;;;3592463;40;20047;-71
2021/04/12 09:30:13;;;;;;;4.38;1.05;;;11.10;99.90;;;;;;3593570;40;20136;-72
2021/04/12 09:33:13;;;;;;;4.80;1.10;;;12.50;97.30;;;;;;3593186;40;20081;-70
2021/04/12 09:36:02;;;;;;;4.40;1.00;;;13.70;94.60;;;;;;3593419;39;20743;-71
2021/04/12 09:39:20;;;;;;;2.92;0.52;;;13.90;94.20;;;;;;3592017;40;20048;-70
2021/04/12 09:42:10;;;;;;;4.80;1.20;;;14.00;90.90;;;;;;3589601;40;20052;-70
2021/04/12 09:45:08;;;;;;;1.80;0.68;;;14.40;91.00;;;;;;3588446;40;20432;-70
2021/04/12 09:48:00;;;;;;;2.83;0.55;;;15.40;86.00;;;;;;3592488;40;20165;-70
2021/04/12 09:50:56;;;;;;;2.25;0.68;;;16.00;88.40;;;;;;3593361;40;20051;-72
2021/04/12 09:54:02;;;;;;;4.20;0.80;;;16.30;83.00;;;;;;3593133;40;20056;-73
2021/04/12 09:56:51;;;;;;;6.80;1.17;;;15.90;80.60;;;;;;3592697;40;20132;-71
2021/04/12 09:59:50;;;;;;;3.20;0.80;;;16.50;75.40;;;;;;3593076;39;20059;-71
2021/04/12 10:02:54;;;;;;;3.22;0.85;;;14.90;77.30;;;;;;3588255;40;20056;-71
2021/04/12 10:05:19;;;;;;;;;;;12.80;89.50;;;;;;3592977;40;20052;-70
2021/04/12 10:08:20;;;;;;;7.13;1.83;;;11.80;92.70;;;;;;3592807;40;19971;-72
2021/04/12 10:11:11;;;;;;;5.47;1.70;;;11.30;96.60;;;;;;3588340;39;20028;-71
2021/04/12 10:13:41;;;;;;;17.42;6.32;;;11.10;97.50;;;;;;3585891;40;20338;-72
2021/04/12 10:16:29;;;;;;;21.02;7.78;;;12.40;95.90;;;;;;3592498;39;20048;-68
2021/04/12 10:19:16;;;;;;;3.13;0.90;;;13.30;93.60;;;;;;3592464;39;20355;-69
2021/04/12 10:21:56;;;;;;;6.65;2.03;;;12.50;91.80;;;;;;3592825;39;20056;-69
2021/04/12 10:24:30;;;;;;;5.22;2.40;;;13.40;90.50;;;;;;3593107;39;20048;-68
2021/04/12 10:27:07;;;;;;;9.38;2.33;;;13.20;88.00;;;;;;3591982;40;20059;-69
2021/04/12 10:29:59;;;;;;;3.70;1.17;;;12.90;87.40;;;;;;3592987;39;20044;-69
2021/04/12 10:32:31;;;;;;;3.47;0.88;;;12.40;90.90;;;;;;3592886;39;20040;-70
2021/04/12 10:35:04;;;;;;;5.68;1.55;;;11.70;91.40;;;;;;3592518;39;20581;-69
2021/04/12 10:37:42;;;;;;;;;;;13.00;90.90;;;;;;3593107;40;20157;-69
2021/04/12 10:40:14;;;;;;;4.03;0.80;;;12.10;91.30;;;;;;3592986;40;20288;-69
2021/04/12 10:43:03;;;;;;;5.22;1.48;;;12.80;88.50;;;;;;3592276;40;20052;-69
2021/04/12 10:45:58;;;;;;;2.78;0.80;;;13.60;88.90;;;;;;3586583;40;20051;-68
2021/04/12 10:48:39;;;;;;;3.15;0.70;;;14.10;82.00;;;;;;3590955;40;20080;-68
2021/04/12 10:51:27;;;;;;;3.20;0.70;;;15.60;75.10;;;;;;3592042;39;20044;-69
2021/04/12 10:54:07;;;;;;;2.80;0.80;;;14.40;78.90;;;;;;3593013;40;20307;-70
2021/04/12 10:56:39;;;;;;;3.10;0.88;;;14.00;80.40;;;;;;3591153;39;20055;-68
2021/04/12 10:59:26;;;;;;;5.30;0.90;;;12.80;85.90;;;;;;3594900;39;20635;-68
2021/04/12 11:02:09;;;;;;;2.50;0.98;;;11.40;88.10;;;;;;3593862;40;20044;-69
2021/04/12 11:04:47;;;;;;;3.38;0.88;;;11.30;90.20;;;;;;3594306;40;20048;-68
2021/04/12 11:07:34;;;;;;;5.35;0.68;;;10.60;91.40;;;;;;3592863;40;20063;-69
2021/04/12 11:10:29;;;;;;;2.55;0.70;;;10.60;92.40;;;;;;3592548;40;20051;-68
2021/04/12 11:13:06;;;;;;;3.20;0.60;;;11.60;90.90;;;;;;3587764;39;20051;-68
2021/04/12 11:15:50;;;;;;;2.55;1.00;;;12.30;88.60;;;;;;3596585;39;20337;-67
2021/04/12 11:18:41;;;;;;;3.13;0.70;;;12.50;85.50;;;;;;3591333;40;20079;-68
2021/04/12 11:22:00;;;;;;;1.88;0.50;;;13.60;85.10;;;;;;3594451;39;20064;-68
2021/04/12 11:24:54;;;;;;;6.88;1.80;;;13.50;78.20;;;;;;3534737;40;20073;-69
2021/04/12 11:27:42;;;;;;;5.97;1.42;;;12.90;81.00;;;;;;3542435;40;20424;-69
2021/04/12 11:30:33;;;;;;;4.45;1.58;;;11.50;85.90;;;;;;3593878;39;20367;-67
2021/04/12 11:33:11;;;;;;;12.10;4.00;;;12.40;85.40;;;;;;3593527;40;20137;-69
2021/04/12 11:35:49;;;;;;;5.60;1.98;;;12.30;84.40;;;;;;3594043;40;20105;-68
2021/04/12 11:38:20;;;;;;;2.85;0.82;;;12.30;86.10;;;;;;3593348;40;20048;-68
2021/04/12 11:40:50;;;;;;;7.05;2.45;;;12.70;84.10;;;;;;3593394;40;20082;-68
2021/04/12 11:43:24;;;;;;;7.38;1.30;;;13.70;82.30;;;;;;3593995;39;20437;-68
2021/04/12 11:46:04;;;;;;;4.35;0.68;;;14.70;78.70;;;;;;3596021;39;20299;-67
2021/04/12 11:48:50;;;;;;;2.88;0.65;;;14.80;76.90;;;;;;3589822;40;20258;-69
2021/04/12 11:51:23;;;;;;;2.90;0.70;;;13.90;76.10;;;;;;3593223;40;20100;-68
2021/04/12 11:53:55;;;;;;;5.13;0.85;;;13.30;77.50;;;;;;3595816;39;20050;-68
2021/04/12 11:56:41;;;;;;;4.20;1.30;;;12.90;77.20;;;;;;3594602;39;20094;-67
2021/04/12 11:59:38;;;;;;;2.55;0.95;;;13.30;77.90;;;;;;3591485;39;20379;-71
2021/04/12 12:02:41;;;;;;;2.35;0.52;;;13.40;79.70;;;;;;3583781;40;20056;-73
2021/04/12 12:05:36;;;;;;;4.17;1.27;;;13.00;72.40;;;;;;3586997;40;20067;-71
2021/04/12 12:08:20;;;;;;;1.92;0.80;;;13.10;72.40;;;;;;3591417;39;20282;-72
2021/04/12 12:10:58;;;;;;;2.20;0.60;;;13.30;73.90;;;;;;3592087;40;20056;-72
2021/04/12 12:13:51;;;;;;;3.17;0.63;;;13.50;72.40;;;;;;3592053;40;20044;-71
2021/04/12 12:16:27;;;;;;;2.83;0.80;;;13.90;70.30;;;;;;3584569;40;20053;-69
2021/04/12 12:18:59;;;;;;;1.92;0.40;;;13.70;73.50;;;;;;3589173;40;20271;-72
2021/04/12 12:21:40;;;;;;;;;;;14.40;73.70;;;;;;3594222;40;20087;-71
2021/04/12 12:24:12;;;;;;;2.42;0.82;;;14.50;71.20;;;;;;3593316;40;19936;-71
2021/04/12 12:26:49;;;;;;;3.97;0.60;;;14.10;72.00;;;;;;3593709;40;20039;-72
2021/04/12 12:29:38;;;;;;;3.13;0.80;;;13.60;73.70;;;;;;3593535;40;20137;-72
2021/04/12 12:32:13;;;;;;;3.17;0.60;;;14.30;74.30;;;;;;3585030;40;20048;-71
2021/04/12 12:35:03;;;;;;;3.55;0.80;;;13.70;76.50;;;;;;3593707;40;20149;-70
2021/04/12 12:37:51;;;;;;;1.38;0.68;;;14.30;77.10;;;;;;3593135;40;20084;-70
2021/04/12 12:40:24;;;;;;;3.80;0.65;;;14.70;76.50;;;;;;3592939;40;20052;-71
2021/04/12 12:42:59;;;;;;;5.97;0.80;;;14.10;73.50;;;;;;3593805;40;20062;-71
2021/04/12 12:45:29;;;;;;;3.50;1.10;;;13.70;72.60;;;;;;3593755;40;20060;-70
2021/04/12 12:47:59;;;;;;;2.72;0.40;;;13.30;73.20;;;;;;3591996;40;20048;-71
2021/04/12 12:50:30;;;;;;;2.05;0.50;;;14.20;73.40;;;;;;3593767;40;20091;-70
2021/04/12 12:53:01;;;;;;;3.53;0.50;;;13.50;73.90;;;;;;3593268;40;20079;-75
2021/04/12 12:55:30;;;;;;;2.88;0.70;;;13.80;72.10;;;;;;3593277;40;20441;-71
2021/04/12 12:58:04;;;;;;;1.83;0.77;;;13.60;73.60;;;;;;3593737;40;20161;-71
2021/04/12 13:00:46;;;;;;;4.72;0.77;;;14.10;73.40;;;;;;3593767;40;20051;-71
2021/04/12 13:03:16;;;;;;;2.40;0.43;;;14.20;73.30;;;;;;3593617;40;20052;-71
2021/04/12 13:05:44;;;;;;;2.95;0.50;;;14.20;73.20;;;;;;3593086;40;20044;-70
2021/04/12 13:08:12;;;;;;;2.17;0.47;;;14.20;72.90;;;;;;3593493;40;20129;-70
2021/04/12 13:10:42;;;;;;;4.43;0.90;;;11.90;78.90;;;;;;3592415;40;20128;-72
2021/04/12 13:13:35;;;;;;;2.42;0.50;;;10.40;87.00;;;;;;3593488;40;20076;-72
2021/04/12 13:16:19;;;;;;;2.97;0.45;;;9.80;93.00;;;;;;3585088;40;20044;-71
2021/04/12 13:19:01;;;;;;;2.00;0.63;;;9.10;99.90;;;;;;3594254;40;20433;-70
2021/04/12 13:21:33;;;;;;;2.72;0.50;;;9.10;99.90;;;;;;3592846;39;20059;-71
2021/04/12 13:24:26;;;;;;;3.20;0.60;;;9.50;99.90;;;;;;3582529;39;20056;-72
2021/04/12 13:27:03;;;;;;;3.35;0.77;;;9.70;99.90;;;;;;3593735;40;20382;-71
2021/04/12 13:29:41;;;;;;;3.92;0.68;;;9.90;99.90;;;;;;3593703;40;20060;-70
2021/04/12 13:32:18;;;;;;;2.50;0.63;;;9.70;99.90;;;;;;3592628;40;20588;-71
2021/04/12 13:34:52;;;;;;;5.75;0.77;;;9.40;99.90;;;;;;3593163;40;20527;-75
2021/04/12 13:37:23;;;;;;;5.65;0.65;;;9.40;99.90;;;;;;3592852;39;20145;-73
2021/04/12 13:39:56;;;;;;;2.03;0.60;;;9.80;99.90;;;;;;3592315;40;20087;-73
2021/04/12 13:42:30;;;;;;;5.50;0.70;;;10.40;99.90;;;;;;3593343;40;20429;-72
2021/04/12 13:45:01;;;;;;;2.75;0.63;;;11.00;98.00;;;;;;3593285;40;20047;-72
2021/04/12 13:47:49;;;;;;;2.17;0.50;;;11.30;97.10;;;;;;3591097;40;20044;-73
2021/04/12 13:50:26;;;;;;;7.03;1.17;;;11.80;95.60;;;;;;3590810;40;20056;-74
2021/04/12 13:53:05;;;;;;;3.60;0.80;;;12.30;94.00;;;;;;3592376;39;20064;-73
2021/04/12 13:55:52;;;;;;;4.38;0.80;;;12.20;91.80;;;;;;3592080;40;20064;-73
2021/04/12 13:58:42;;;;;;;2.35;0.68;;;11.90;90.60;;;;;;3592913;40;20298;-72
2021/04/12 14:01:12;;;;;;;1.08;0.45;;;12.20;88.80;;;;;;3593112;40;20332;-73
2021/04/12 14:04:01;;;;;;;2.80;0.65;;;12.50;85.70;;;;;;3589378;39;20057;-73
2021/04/12 14:06:33;;;;;;;2.03;0.60;;;12.50;84.80;;;;;;3588157;40;20104;-73
2021/04/12 14:09:31;;;;;;;3.85;0.52;;;12.40;84.80;;;;;;3583995;40;20047;-72
2021/04/12 14:12:03;;;;;;;3.17;0.75;;;12.50;84.70;;;;;;3592098;40;20083;-73
2021/04/12 14:14:51;;;;;;;2.33;0.52;;;12.20;85.80;;;;;;3592812;40;20092;-72
2021/04/12 14:17:35;;;;;;;4.00;0.85;;;11.80;90.90;;;;;;3592478;40;20400;-73
2021/04/12 14:20:20;;;;;;;4.93;0.52;;;12.50;90.50;;;;;;3582885;40;20050;-73
2021/04/12 14:22:51;;;;;;;2.45;0.60;;;12.80;88.80;;;;;;3591225;40;20138;-72
2021/04/12 14:25:33;;;;;;;5.20;0.80;;;12.30;90.70;;;;;;3592398;40;20083;-73
2021/04/12 14:28:08;;;;;;;6.47;1.27;;;11.80;90.80;;;;;;3584377;40;20059;-73
2021/04/12 14:30:43;;;;;;;2.42;0.57;;;11.50;93.20;;;;;;3592411;40;20091;-70
2021/04/12 14:33:10;;;;;;;3.17;0.55;;;11.50;93.30;;;;;;3593472;40;20048;-72
2021/04/12 14:35:43;;;;;;;4.43;0.95;;;11.50;92.30;;;;;;3594861;39;20149;-72
2021/04/12 14:38:22;;;;;;;4.93;1.07;;;11.50;90.60;;;;;;3593280;40;20054;-71
2021/04/12 14:41:07;;;;;;;6.93;2.80;;;11.60;91.50;;;;;;3594035;39;20305;-72
2021/04/12 14:43:36;;;;;;;3.38;0.93;;;11.60;91.20;;;;;;3593831;40;20051;-75
2021/04/12 14:46:16;;;;;;;5.78;0.80;;;11.70;91.50;;;;;;3593943;40;20428;-72
2021/04/12 14:48:55;;;;;;;3.92;0.70;;;11.90;89.30;;;;;;3590781;40;20350;-72
2021/04/12 14:51:33;;;;;;;2.55;0.80;;;12.00;90.20;;;;;;3590726;40;20122;-72
2021/04/12 14:54:14;;;;;;;3.97;0.90;;;11.90;87.10;;;;;;3593507;40;20315;-72
2021/04/12 14:57:02;;;;;;;6.07;0.80;;;11.50;88.30;;;;;;3591362;40;20051;-71
2021/04/12 15:00:07;;;;;;;4.63;0.60;;;11.10;88.70;;;;;;3589969;40;20092;-73
2021/04/12 15:02:39;;;;;;;2.25;0.75;;;11.90;88.80;;;;;;3588601;40;20043;-73
2021/04/12 15:05:15;;;;;;;4.00;0.57;;;11.70;87.50;;;;;;3589198;40;20078;-73
2021/04/12 15:07:48;;;;;;;6.13;0.68;;;11.50;84.90;;;;;;3593512;40;20052;-71
2021/04/12 15:10:32;;;;;;;2.10;0.65;;;11.40;86.70;;;;;;3593046;40;20052;-72
2021/04/12 15:13:09;;;;;;;4.05;0.52;;;11.00;84.00;;;;;;3593953;40;20044;-73
2021/04/12 15:15:42;;;;;;;1.55;0.57;;;11.20;87.70;;;;;;3594222;40;20067;-73
2021/04/12 15:18:21;;;;;;;4.15;0.60;;;11.00;86.50;;;;;;3584572;40;20138;-70
2021/04/12 15:21:02;;;;;;;3.30;0.65;;;10.90;84.90;;;;;;3593777;40;20317;-72
2021/04/12 15:23:35;;;;;;;4.57;0.80;;;10.90;87.30;;;;;;3594296;40;20133;-72
2021/04/12 15:26:05;;;;;;;;;;;11.10;88.40;;;;;;3594470;40;20056;-73
2021/04/12 15:28:37;;;;;;;4.95;0.68;;;11.10;89.90;;;;;;3594495;40;20266;-72
2021/04/12 15:31:34;;;;;;;11.40;1.15;;;11.10;88.80;;;;;;3594278;40;20054;-74
2021/04/12 15:34:08;;;;;;;5.18;1.30;;;11.40;89.40;;;;;;3586366;40;20707;-73
2021/04/12 15:36:45;;;;;;;3.05;0.70;;;11.70;89.60;;;;;;3593283;40;20062;-72
2021/04/12 15:39:24;;;;;;;8.23;0.93;;;11.60;86.30;;;;;;3590179;39;20321;-71
2021/04/12 15:41:54;;;;;;;2.80;0.50;;;11.50;87.50;;;;;;3594096;40;20052;-72
2021/04/12 15:44:24;;;;;;;2.30;0.57;;;11.60;85.10;;;;;;3593851;39;20141;-73
2021/04/12 15:46:53;;;;;;;4.78;1.23;;;11.50;83.90;;;;;;3594476;39;20048;-72
2021/04/12 15:49:24;;;;;;;3.65;0.75;;;11.30;87.40;;;;;;3596114;39;20461;-72
2021/04/12 15:52:02;;;;;;;2.33;0.70;;;11.40;88.40;;;;;;3600001;39;20061;-72
2021/04/12 15:54:31;;;;;;;3.58;0.60;;;11.30;87.80;;;;;;3590071;40;20067;-72
2021/04/12 15:57:05;;;;;;;10.65;0.65;;;11.10;85.30;;;;;;3592867;40;20076;-72
2021/04/12 15:59:36;;;;;;;3.55;0.80;;;11.20;88.00;;;;;;3594866;40;20055;-73
2021/04/12 16:02:33;;;;;;;2.28;0.80;;;10.80;90.30;;;;;;3585284;40;20317;-73
2021/04/12 16:05:28;;;;;;;3.70;0.82;;;10.80;90.10;;;;;;3590376;40;20326;-71
2021/04/12 16:07:58;;;;;;;4.85;0.68;;;10.50;89.60;;;;;;3593429;40;20050;-72
2021/04/12 16:10:53;;;;;;;9.00;0.80;;;10.50;89.90;;;;;;3593702;40;20088;-72
2021/04/12 16:13:46;;;;;;;7.18;0.88;;;10.70;90.60;;;;;;3583782;40;20048;-73
2021/04/12 16:16:27;;;;;;;2.85;0.90;;;10.60;90.30;;;;;;3594777;40;20323;-74
2021/04/12 16:19:04;;;;;;;5.40;0.80;;;10.40;91.00;;;;;;3587391;40;20056;-72
2021/04/12 16:21:41;;;;;;;1.35;0.45;;;10.40;91.10;;;;;;3593434;40;20048;-72
2021/04/12 16:24:24;;;;;;;3.33;0.47;;;10.30;90.70;;;;;;3583435;40;20387;-72
2021/04/12 16:27:10;;;;;;;2.90;0.93;;;9.70;91.00;;;;;;3593140;40;20052;-72
2021/04/12 16:29:57;;;;;;;2.08;0.52;;;9.90;91.90;;;;;;3588851;40;20372;-72
2021/04/12 16:32:42;;;;;;;2.10;0.60;;;9.60;92.30;;;;;;3594699;40;20137;-73
2021/04/12 16:35:19;;;;;;;3.00;0.43;;;9.60;93.10;;;;;;3594092;40;20171;-72
2021/04/12 16:37:48;;;;;;;4.30;0.70;;;9.90;93.60;;;;;;3594183;40;20063;-73
2021/04/12 16:40:24;;;;;;;4.80;0.88;;;9.80;94.70;;;;;;3593414;40;20052;-75
2021/04/12 16:42:57;;;;;;;6.30;1.00;;;9.70;94.60;;;;;;3593610;40;20059;-73
2021/04/12 16:45:27;;;;;;;6.65;1.40;;;9.60;95.70;;;;;;3593809;40;20237;-74
2021/04/12 16:48:00;;;;;;;2.40;0.57;;;9.30;95.50;;;;;;3594222;40;20055;-72
2021/04/12 16:50:29;;;;;;;5.68;0.80;;;9.40;96.10;;;;;;3593949;40;20048;-71
2021/04/12 16:52:58;;;;;;;1.75;0.52;;;9.40;97.10;;;;;;3594038;40;20059;-71
2021/04/12 16:55:26;;;;;;;5.20;0.50;;;9.00;98.00;;;;;;3592943;39;20055;-72
2021/04/12 16:58:01;;;;;;;3.95;0.70;;;9.00;99.10;;;;;;3594361;40;20063;-71
2021/04/12 17:00:40;;;;;;;3.47;0.60;;;9.10;99.90;;;;;;3592454;40;20058;-72
2021/04/12 17:03:20;;;;;;;4.78;0.85;;;9.30;99.10;;;;;;3593402;40;20048;-73
2021/04/12 17:05:52;;;;;;;2.17;0.98;;;9.30;98.90;;;;;;3583908;40;20133;-72
2021/04/12 17:08:44;;;;;;;5.10;1.08;;;9.60;99.60;;;;;;3601709;39;20078;-71
2021/04/12 17:11:19;;;;;;;5.53;1.27;;;9.60;99.90;;;;;;3592937;40;20052;-72
2021/04/12 17:14:12;;;;;;;2.20;0.60;;;9.60;99.10;;;;;;3593908;40;20048;-74
2021/04/12 17:16:53;;;;;;;3.60;1.00;;;9.50;98.30;;;;;;3592582;40;20181;-72
2021/04/12 17:19:26;;;;;;;1.88;0.77;;;9.50;98.10;;;;;;3594167;40;20398;-73
2021/04/12 17:22:12;;;;;;;4.22;0.68;;;9.40;98.40;;;;;;3593233;40;20048;-72
2021/04/12 17:24:42;;;;;;;3.83;0.65;;;9.20;98.30;;;;;;3593257;39;20406;-72
2021/04/12 17:27:28;;;;;;;11.48;8.02;;;9.10;98.70;;;;;;3589414;40;20040;-72
2021/04/12 17:30:02;;;;;;;3.28;0.55;;;8.90;98.70;;;;;;3592647;40;20047;-73
2021/04/12 17:32:33;;;;;;;4.30;0.70;;;8.90;99.10;;;;;;3595247;39;20442;-73
2021/04/12 17:35:08;;;;;;;7.00;1.25;;;8.80;99.90;;;;;;3593744;40;20088;-72
2021/04/12 17:37:47;;;;;;;4.78;1.08;;;8.90;99.90;;;;;;3596285;39;20094;-72
2021/04/12 17:40:24;;;;;;;9.43;1.38;;;8.90;99.90;;;;;;3592793;40;20056;-71
2021/04/12 17:43:20;;;;;;;4.45;0.75;;;8.80;99.90;;;;;;3593602;40;20055;-72
2021/04/12 17:45:48;;;;;;;5.53;0.88;;;8.70;99.90;;;;;;3593308;40;20437;-71
2021/04/12 17:48:38;;;;;;;3.97;0.70;;;8.50;99.90;;;;;;3592476;40;20051;-73
2021/04/12 17:51:27;;;;;;;4.30;0.90;;;8.60;99.90;;;;;;3593362;40;20060;-72
2021/04/12 17:54:08;;;;;;;2.42;0.70;;;8.60;99.90;;;;;;3593495;40;20420;-72
2021/04/12 17:56:48;;;;;;;3.38;0.70;;;8.60;99.90;;;;;;3588844;40;20048;-73
2021/04/12 17:59:36;;;;;;;4.28;0.68;;;8.40;99.90;;;;;;3593671;40;20087;-73
2021/04/12 18:02:06;;;;;;;4.35;0.82;;;8.40;99.90;;;;;;3575476;40;20100;-73
2021/04/12 18:04:36;;;;;;;5.68;0.73;;;8.30;99.90;;;;;;3593338;40;20052;-72
2021/04/12 18:07:06;;;;;;;7.00;0.85;;;8.20;99.90;;;;;;3587614;40;20048;-73
2021/04/12 18:09:40;;;;;;;7.22;0.90;;;8.30;99.90;;;;;;3593044;40;20765;-73
2021/04/12 18:12:16;;;;;;;7.18;1.08;;;8.00;99.90;;;;;;3593110;39;20096;-72
2021/04/12 18:14:48;;;;;;;10.68;1.00;;;7.90;99.90;;;;;;3593400;39;20317;-71
2021/04/12 18:17:24;;;;;;;7.20;1.30;;;7.90;99.90;;;;;;3592900;40;20444;-73
2021/04/12 18:19:59;;;;;;;1.90;0.60;;;7.80;99.90;;;;;;3593144;40;20401;-73
2021/04/12 18:22:27;;;;;;;2.08;0.70;;;7.80;99.90;;;;;;3592623;40;20059;-72
2021/04/12 18:25:20;;;;;;;11.65;1.38;;;7.80;99.90;;;;;;3593036;40;20365;-73
2021/04/12 18:27:49;;;;;;;6.30;1.00;;;7.70;99.90;;;;;;3594118;40;20107;-73
2021/04/12 18:30:21;;;;;;;6.43;0.73;;;7.40;99.90;;;;;;3593257;39;20037;-71
2021/04/12 18:33:27;;;;;;;8.05;1.23;;;7.50;99.90;;;;;;3593474;40;20052;-72
2021/04/12 18:36:03;;;;;;;3.88;0.80;;;7.40;99.90;;;;;;3552907;40;20053;-72
2021/04/12 18:38:40;;;;;;;2.85;0.77;;;7.40;99.90;;;;;;3556088;40;20213;-73
2021/04/12 18:41:28;;;;;;;5.55;1.10;;;7.40;99.90;;;;;;3574612;40;20413;-73
2021/04/12 18:44:04;;;;;;;9.65;1.67;;;7.40;99.90;;;;;;3589683;40;20333;-72
2021/04/12 18:47:07;;;;;;;6.90;1.00;;;7.40;99.90;;;;;;3592075;40;20044;-72
2021/04/12 18:49:46;;;;;;;6.95;0.73;;;7.30;99.90;;;;;;3592989;40;20217;-74
2021/04/12 18:52:33;;;;;;;5.75;0.90;;;7.30;99.90;;;;;;3592871;40;20048;-74
2021/04/12 18:55:21;;;;;;;5.57;1.25;;;7.30;99.90;;;;;;3592857;40;20083;-74
2021/04/12 18:58:24;;;;;;;7.82;1.05;;;7.10;99.90;;;;;;3591919;40;20080;-72
2021/04/12 19:01:01;;;;;;;10.20;1.30;;;7.20;99.90;;;;;;3593159;40;20115;-73
2021/04/12 19:03:40;;;;;;;4.78;1.05;;;7.20;99.90;;;;;;3592833;40;20044;-72
2021/04/12 19:06:35;;;;;;;5.13;1.17;;;7.20;99.90;;;;;;3592869;40;20044;-72
2021/04/12 19:09:34;;;;;;;6.18;1.00;;;7.20;99.90;;;;;;3592775;39;20032;-73
2021/04/12 19:12:27;;;;;;;16.50;1.58;;;7.20;99.90;;;;;;3580549;39;20048;-73
2021/04/12 19:15:01;;;;;;;5.63;0.80;;;7.10;99.90;;;;;;3581795;40;20306;-73
2021/04/12 19:17:49;;;;;;;6.15;1.02;;;6.90;99.90;;;;;;3593124;39;20404;-73
2021/04/12 19:20:39;;;;;;;3.03;0.77;;;6.90;99.90;;;;;;3593883;40;20054;-73
2021/04/12 19:23:24;;;;;;;3.67;0.88;;;7.00;99.90;;;;;;3594306;40;20084;-73
2021/04/12 19:26:20;;;;;;;3.30;0.45;;;6.90;99.90;;;;;;3592876;40;20060;-74
2021/04/12 19:29:04;;;;;;;3.67;0.52;;;6.90;99.90;;;;;;3593669;40;20088;-73
2021/04/12 19:31:44;;;;;;;3.35;0.93;;;7.00;99.90;;;;;;3594288;40;20047;-74
2021/04/12 19:34:45;;;;;;;4.10;0.85;;;6.70;99.90;;;;;;3593631;40;20045;-73
2021/04/12 19:37:50;;;;;;;4.90;0.70;;;6.70;99.90;;;;;;3581724;40;20052;-73
2021/04/12 19:40:29;;;;;;;4.18;0.75;;;6.70;99.90;;;;;;3593574;40;20047;-73
2021/04/12 19:43:02;;;;;;;7.10;1.00;;;6.50;99.90;;;;;;3594148;40;20201;-74
2021/04/12 19:45:43;;;;;;;6.55;1.17;;;6.40;99.90;;;;;;3591577;40;20083;-72
2021/04/12 19:48:46;;;;;;;6.20;1.02;;;6.40;99.90;;;;;;3587556;40;20221;-73
2021/04/12 19:51:20;;;;;;;5.88;0.75;;;6.40;99.90;;;;;;3592443;40;20052;-74
2021/04/12 19:54:13;;;;;;;9.73;1.75;;;6.40;99.90;;;;;;3584512;40;20052;-73
2021/04/12 19:56:59;;;;;;;9.23;1.52;;;6.40;99.90;;;;;;3594852;40;20343;-73
2021/04/12 19:59:42;;;;;;;7.38;1.38;;;6.40;99.90;;;;;;3593330;40;20043;-72
2021/04/12 20:02:22;;;;;;;27.73;1.80;;;6.50;99.90;;;;;;3594229;40;20398;-74
2021/04/12 20:04:53;;;;;;;5.53;1.20;;;6.40;99.90;;;;;;3591661;40;20137;-74
2021/04/12 20:07:31;;;;;;;12.23;1.75;;;6.40;99.90;;;;;;3593807;40;20067;-74
2021/04/12 20:10:17;;;;;;;5.75;1.02;;;6.30;99.90;;;;;;3593715;40;20044;-73
2021/04/12 20:12:50;;;;;;;7.10;1.10;;;6.40;99.90;;;;;;3592059;39;20053;-73
2021/04/12 20:15:39;;;;;;;6.85;1.25;;;6.30;99.90;;;;;;3584692;40;20337;-73
2021/04/12 20:18:08;;;;;;;11.27;1.48;;;6.30;99.90;;;;;;3584484;40;20056;-73
2021/04/12 20:20:38;;;;;;;6.50;1.27;;;6.30;99.90;;;;;;3589034;40;20036;-73
2021/04/12 20:23:16;;;;;;;9.38;2.17;;;6.20;99.90;;;;;;3583631;40;20338;-72
2021/04/12 20:25:56;;;;;;;7.57;2.08;;;6.30;99.90;;;;;;3580715;40;20175;-72
2021/04/12 20:28:37;;;;;;;8.75;2.42;;;6.10;99.90;;;;;;3587195;40;20062;-73
2021/04/12 20:31:40;;;;;;;11.13;1.95;;;6.20;99.90;;;;;;3578298;40;20060;-72